Time;durP1;ratioP1;P1;durP2;ratioP2;P2;SDS_P1;SDS_P2;PMS_P1;PMS_P2;Temp;Humidity;BMP_temperature;BMP_pressure;BME280_temperature;BME280_humidity;BME280_pressure;Samples;Min_cycle;Max_cycle;Signal;HPM_P1;HPM_P2
2021/12/11 01:57:22;;;;;;;4.10;3.10;;;;;;;16.56;49.14;100834.59;5458814;23;20115;-80
2021/12/11 01:59:55;;;;;;;4.22;3.10;;;;;;;16.56;49.22;100838.94;4966267;29;20086;-80
2021/12/11 02:02:31;;;;;;;4.55;3.38;;;;;;;16.58;49.24;100847.59;4948193;29;20050;-81
2021/12/11 02:04:57;;;;;;;5.20;3.00;;;;;;;16.56;49.49;100847.56;4947592;29;20027;-81
2021/12/11 02:07:38;;;;;;;4.55;3.00;;;;;;;16.56;49.18;100850.19;4964540;29;20042;-81
2021/12/11 02:10:10;;;;;;;5.00;3.60;;;;;;;16.55;49.22;100843.28;4947142;29;20039;-80
2021/12/11 02:12:43;;;;;;;4.50;3.60;;;;;;;16.55;49.20;100847.56;4931364;29;20043;-80
2021/12/11 02:15:20;;;;;;;6.03;3.50;;;;;;;16.56;49.41;100854.50;4947433;29;20474;-80
2021/12/11 02:18:10;;;;;;;4.55;3.00;;;;;;;16.55;49.23;100861.44;4967774;29;20027;-79
2021/12/11 02:20:44;;;;;;;4.75;3.33;;;;;;;16.56;49.05;100867.50;4943548;29;20037;-81
2021/12/11 02:23:15;;;;;;;4.72;3.45;;;;;;;16.54;48.98;100866.66;4943785;29;20130;-80
2021/12/11 02:25:46;;;;;;;5.93;3.22;;;;;;;16.56;49.08;100872.69;4943334;29;20035;-80
2021/12/11 02:28:27;;;;;;;3.58;2.95;;;;;;;16.54;49.04;100877.91;4960183;29;20035;-80
2021/12/11 02:31:10;;;;;;;3.80;3.03;;;;;;;16.54;49.39;100882.22;4943188;29;20135;-81
2021/12/11 02:33:53;;;;;;;6.45;3.20;;;;;;;16.55;48.99;100878.75;4960268;29;20043;-80
2021/12/11 02:36:28;;;;;;;3.92;3.13;;;;;;;16.55;49.11;100881.34;4961347;29;20046;-81
2021/12/11 02:42:54;;;;;;;4.45;2.97;;;;;;;16.56;49.29;100893.47;4976291;29;20071;-82
2021/12/11 02:46:12;;;;;;;4.57;2.78;;;;;;;16.57;49.45;100890.00;4943003;29;20035;-82
2021/12/11 07:00:26;;;;;;;3.83;2.50;;;;;;;16.52;50.33;101260.66;4977789;29;20086;-81
2021/12/11 07:03:11;;;;;;;3.50;2.35;;;;;;;16.50;50.30;101268.44;4950011;29;20032;-80
2021/12/11 07:05:38;;;;;;;3.25;2.20;;;;;;;16.52;50.27;101274.50;4913491;29;20470;-80
2021/12/11 07:08:08;;;;;;;3.97;2.60;;;;;;;16.51;50.45;101288.38;4927778;29;20115;-80
2021/12/11 07:13:22;;;;;;;3.25;2.22;;;;;;;16.51;50.50;101292.72;4951842;23;20038;-81
2021/12/11 07:15:47;;;;;;;3.17;2.38;;;;;;;16.53;50.55;101298.78;4947670;29;20035;-81
2021/12/11 07:18:15;;;;;;;3.42;2.30;;;;;;;16.54;50.95;101300.50;4945348;29;20046;-80
2021/12/11 07:20:44;;;;;;;4.28;2.70;;;;;;;16.52;50.54;101295.28;4947949;29;20071;-80
2021/12/11 07:23:12;;;;;;;3.30;2.33;;;;;;;16.53;50.64;101303.97;4929979;29;20439;-80
2021/12/11 07:25:50;;;;;;;4.63;2.67;;;;;;;16.53;50.78;101310.03;4944380;29;20110;-80
2021/12/11 07:28:16;;;;;;;3.97;2.70;;;;;;;16.52;50.59;101313.47;4945490;29;20032;-80
2021/12/11 07:30:45;;;;;;;3.10;2.15;;;;;;;16.53;50.44;101317.84;4914197;29;20032;-79
2021/12/11 07:33:12;;;;;;;4.63;2.40;;;;;;;16.54;50.65;101323.88;4927626;29;20047;-80
2021/12/11 07:35:42;;;;;;;3.75;2.30;;;;;;;16.53;50.87;101327.38;4946171;29;20028;-80
2021/12/11 07:38:08;;;;;;;3.67;2.42;;;;;;;16.53;50.62;101327.38;4948655;29;20095;-81
2021/12/11 07:40:40;;;;;;;3.00;2.50;;;;;;;16.56;50.72;101337.75;4950047;29;20115;-81
2021/12/11 07:43:12;;;;;;;3.78;2.58;;;;;;;16.55;50.71;101336.88;4948094;29;20035;-81
2021/12/11 07:45:49;;;;;;;3.30;2.40;;;;;;;16.54;50.87;101337.72;4933230;29;20039;-81
2021/12/11 07:57:57;;;;;;;4.50;2.50;;;;;;;16.59;50.82;101362.03;5155909;27;20576;-80
2021/12/11 08:00:26;;;;;;;4.32;2.70;;;;;;;16.60;50.76;101373.28;5134086;28;20084;-80
2021/12/11 08:02:51;;;;;;;3.50;2.60;;;;;;;16.60;50.71;101378.47;5134505;28;20030;-80
2021/12/11 08:05:17;;;;;;;4.03;2.90;;;;;;;16.60;50.82;101378.47;5134412;28;20031;-80
2021/12/11 08:07:43;;;;;;;4.57;2.78;;;;;;;16.60;50.78;101384.53;5137170;28;20020;-80
2021/12/11 08:10:18;;;;;;;3.13;2.50;;;;;;;16.61;50.93;101393.19;5137989;28;20381;-80
2021/12/11 08:12:44;;;;;;;4.82;2.50;;;;;;;16.61;50.82;101395.78;5141620;28;20091;-80
2021/12/11 08:15:12;;;;;;;3.20;2.50;;;;;;;16.62;50.96;101398.41;5143849;28;20020;-80
2021/12/11 08:17:38;;;;;;;3.10;2.53;;;;;;;16.62;50.74;101408.78;5147561;28;20030;-82
2021/12/11 08:20:08;;;;;;;4.18;2.95;;;;;;;16.61;50.79;101414.88;5154630;28;20067;-80
2021/12/11 08:22:34;;;;;;;4.90;2.80;;;;;;;16.62;50.55;101416.59;5152276;27;20028;-80
2021/12/11 08:25:00;;;;;;;3.92;2.67;;;;;;;16.64;50.80;101424.41;5141794;28;20042;-78
2021/12/11 08:27:27;;;;;;;3.90;2.80;;;;;;;16.64;50.69;101425.25;5140610;28;20024;-81
2021/12/11 08:29:54;;;;;;;4.35;3.15;;;;;;;16.64;50.73;101434.78;5140760;28;20025;-81
2021/12/11 09:50:58;;;;;;;8.23;3.90;;;;;;;17.40;50.06;101537.34;5699181;23;20020;31
2021/12/11 09:53:45;;;;;;;6.30;4.00;;;;;;;17.36;50.08;101539.06;4936731;23;20097;-80
2021/12/11 12:07:10;;;;;;;4.65;2.55;;;;;;;17.52;51.08;101662.25;5806802;23;20030;-81
2021/12/11 13:03:16;;;;;;;3.17;1.80;;;;;;;17.87;50.95;101718.81;5711343;23;20037;31
2021/12/11 13:20:54;;;;;;;7.25;1.85;;;;;;;17.72;52.89;101721.34;4792863;29;20121;-83
2021/12/11 13:23:56;;;;;;;3.78;1.70;;;;;;;17.62;52.54;101725.66;4791408;30;20099;-81
2021/12/11 13:53:04;;;;;;;3.33;1.50;;;;;;;17.48;53.51;101748.97;4845742;29;20079;-83
2021/12/11 14:03:26;;;;;;;3.38;1.45;;;;;;;17.50;53.20;101752.47;5458196;23;20090;-84
2021/12/11 14:06:37;;;;;;;4.10;1.45;;;;;;;17.47;53.39;101753.31;4880216;29;20045;-82
2021/12/11 14:09:08;;;;;;;3.90;1.60;;;;;;;17.47;53.30;101762.88;4861452;29;20052;-81
2021/12/11 14:12:02;;;;;;;3.67;1.77;;;;;;;17.48;53.41;101764.59;4879270;29;20065;-82
2021/12/11 14:15:02;;;;;;;2.95;1.50;;;;;;;17.46;53.52;101767.22;4850449;29;20022;-81
2021/12/11 14:17:43;;;;;;;2.50;1.27;;;;;;;17.46;53.55;101771.53;4881571;29;20060;-81
2021/12/11 14:20:26;;;;;;;2.78;1.23;;;;;;;17.46;53.66;101775.00;4881091;29;20076;-83
2021/12/11 18:24:03;;;;;;;5.15;2.83;;;;;;;16.75;67.41;101947.75;5535619;23;20049;-83
2021/12/11 18:26:52;;;;;;;7.05;3.00;;;;;;;16.70;69.21;101945.94;4881948;29;20029;-86
